Time;durP1;ratioP1;P1;durP2;ratioP2;P2;SDS_P1;SDS_P2;PMS_P1;PMS_P2;Temp;Humidity;BMP_temperature;BMP_pressure;BME280_temperature;BME280_humidity;BME280_pressure;Samples;Min_cycle;Max_cycle;Signal;HPM_P1;HPM_P2
2022/06/05 00:01:56;;;;;;;19.65;17.45;;;;;;;16.38;88.68;100701.13;2960275;79;21042;-87
2022/06/05 00:06:09;;;;;;;30.35;20.80;;;;;;;16.35;88.41;100705.47;2906856;81;20994;-89
2022/06/05 00:10:21;;;;;;;24.70;18.70;;;;;;;16.32;88.01;100696.87;2938827;79;21060;-88
2022/06/05 00:14:23;;;;;;;20.88;18.70;;;;;;;16.21;87.58;100697.45;2891517;80;20975;-89
2022/06/05 00:18:25;;;;;;;28.25;19.85;;;;;;;16.12;88.12;100698.36;2899928;80;21062;-89
2022/06/05 00:22:26;;;;;;;31.82;20.05;;;;;;;16.03;88.47;100689.38;2931486;80;21042;-89
2022/06/05 00:26:33;;;;;;;34.27;21.68;;;;;;;16.02;88.78;100683.66;2904967;80;21588;-88
2022/06/05 00:30:42;;;;;;;23.60;20.10;;;;;;;16.03;88.32;100684.01;2910522;80;21495;-87
2022/06/05 00:34:44;;;;;;;19.87;16.87;;;;;;;16.01;88.25;100682.46;2914823;80;21038;-89
2022/06/05 00:39:21;;;;;;;22.95;20.60;;;;;;;15.97;87.80;100688.65;2885297;81;21004;-88
2022/06/05 00:43:24;;;;;;;;;;;;;;;15.94;87.92;100687.61;2918974;81;21058;-88
2022/06/05 00:47:30;;;;;;;19.87;17.77;;;;;;;15.84;87.25;100684.96;2948158;79;20116;-88
2022/06/05 00:51:31;;;;;;;;;;;;;;;15.80;87.99;100694.28;2940454;80;21003;-89
2022/06/05 00:55:48;;;;;;;20.00;15.93;;;;;;;15.75;87.98;100689.39;2937147;79;20852;-87
2022/06/05 00:59:51;;;;;;;20.35;17.65;;;;;;;15.72;87.67;100685.64;2927604;79;21537;-88
2022/06/05 01:03:54;;;;;;;24.05;19.37;;;;;;;15.56;87.51;100687.64;2948392;80;20991;-87
2022/06/05 01:07:56;;;;;;;22.05;19.67;;;;;;;15.52;88.21;100688.94;2924981;79;21026;-89
2022/06/05 01:12:27;;;;;;;23.98;16.48;;;;;;;15.52;88.14;100695.64;2893854;81;21025;-89
2022/06/05 01:16:37;;;;;;;23.92;19.27;;;;;;;15.53;87.89;100686.12;2751105;85;21134;-88
2022/06/05 01:21:10;;;;;;;28.80;19.40;;;;;;;15.46;86.98;100685.52;2725850;85;21752;-90
2022/06/05 01:25:36;;;;;;;20.52;16.93;;;;;;;15.39;87.68;100696.81;2672774;86;21146;-89
2022/06/05 01:29:57;;;;;;;29.60;19.03;;;;;;;15.28;86.44;100702.38;2649959;89;21130;-88
2022/06/05 01:34:47;;;;;;;22.60;18.32;;;;;;;15.14;87.10;100707.20;2696925;86;21035;-89
2022/06/05 01:39:08;;;;;;;20.88;18.75;;;;;;;15.09;87.82;100704.59;2671602;88;21041;-85
2022/06/05 01:43:15;;;;;;;27.90;19.95;;;;;;;15.11;87.93;100695.91;2698486;87;21508;-88
2022/06/05 01:47:22;;;;;;;24.60;20.43;;;;;;;15.09;87.51;100700.09;2828528;79;21023;-88
2022/06/05 01:51:34;;;;;;;31.50;19.00;;;;;;;15.08;87.53;100689.52;2892360;80;21063;-88
2022/06/05 01:55:55;;;;;;;21.70;19.55;;;;;;;15.05;87.56;100694.69;2863850;80;21018;-88
2022/06/05 02:00:02;;;;;;;25.97;18.98;;;;;;;15.03;87.10;100691.28;2874974;80;21034;-87
2022/06/05 02:04:14;;;;;;;24.12;18.52;;;;;;;14.94;85.68;100689.00;2898229;80;21038;-89
2022/06/05 02:08:23;;;;;;;27.30;16.95;;;;;;;14.74;86.15;100687.33;2898918;80;21002;-89
2022/06/05 02:12:26;;;;;;;23.47;19.30;;;;;;;14.67;85.90;100692.40;2884724;82;21053;-89
2022/06/05 02:16:30;;;;;;;20.70;17.48;;;;;;;14.56;86.22;100697.41;2875078;82;21010;-88
2022/06/05 02:20:32;;;;;;;15.65;13.60;;;;;;;14.51;86.57;100700.51;2893492;80;20967;-86
2022/06/05 02:24:33;;;;;;;22.75;15.65;;;;;;;14.46;86.34;100700.57;2844257;82;21046;-85
2022/06/05 02:28:37;;;;;;;17.02;15.20;;;;;;;14.42;86.97;100698.19;2873492;81;21484;-87
2022/06/05 02:33:06;;;;;;;21.62;19.25;;;;;;;14.45;86.40;100690.86;2875342;81;21779;-88
2022/06/05 02:37:37;;;;;;;26.00;20.05;;;;;;;14.40;86.85;100683.24;2883749;81;21058;-88
2022/06/05 02:41:48;;;;;;;25.05;19.27;;;;;;;14.35;87.73;100687.70;2833265;82;21067;-88
2022/06/05 02:46:27;;;;;;;19.85;16.90;;;;;;;14.35;87.73;100693.05;2783108;83;21043;-88
2022/06/05 02:50:49;;;;;;;21.27;19.05;;;;;;;14.35;88.01;100697.07;2663355;88;21426;-87
2022/06/05 02:55:10;;;;;;;22.00;18.12;;;;;;;14.37;87.62;100699.11;2657299;88;21086;-90
2022/06/05 02:59:11;;;;;;;25.05;19.17;;;;;;;14.45;88.12;100699.75;2664942;88;21042;-89
2022/06/05 03:03:28;;;;;;;21.90;19.67;;;;;;;14.50;88.07;100699.30;2665650;88;21074;-90
2022/06/05 03:07:29;;;;;;;17.52;15.40;;;;;;;14.46;89.16;100700.57;2656004;88;21129;-89
2022/06/05 03:11:31;;;;;;;21.50;18.35;;;;;;;14.45;89.15;100705.09;2657328;88;21043;-88
2022/06/05 03:15:33;;;;;;;25.08;21.10;;;;;;;14.47;88.94;100716.98;2660923;88;21111;-89
2022/06/05 03:19:34;;;;;;;39.13;24.75;;;;;;;14.49;89.53;100716.34;2761658;84;21089;-86
2022/06/05 03:23:36;;;;;;;31.37;21.48;;;;;;;14.40;89.02;100717.55;2776907;83;21032;-87
2022/06/05 03:27:37;;;;;;;20.72;17.65;;;;;;;14.22;88.41;100723.24;2959776;79;21026;-88
2022/06/05 03:31:38;;;;;;;36.83;14.07;;;;;;;14.22;88.37;100726.75;2983577;77;21041;-88
2022/06/05 03:35:43;;;;;;;39.65;13.48;;;;;;;14.28;87.99;100732.05;3010587;77;21053;-89
2022/06/05 03:39:46;;;;;;;31.30;16.43;;;;;;;14.33;86.97;100737.81;2994079;79;20978;-89
2022/06/05 03:43:47;;;;;;;25.32;14.23;;;;;;;14.27;87.51;100733.03;2967369;78;21555;-89
2022/06/05 03:47:50;;;;;;;24.23;17.20;;;;;;;14.34;89.30;100722.11;2976546;79;21028;-87
2022/06/05 03:51:51;;;;;;;22.82;15.95;;;;;;;14.42;90.55;100721.41;3016247;77;21056;-85
2022/06/05 03:55:52;;;;;;;18.17;16.35;;;;;;;14.57;92.20;100720.01;2997654;77;21013;-89
2022/06/05 03:59:53;;;;;;;19.23;15.30;;;;;;;14.78;92.21;100720.89;3014867;77;21612;-88
2022/06/05 04:03:56;;;;;;;17.92;16.00;;;;;;;15.02;92.28;100718.23;2995337;79;21037;-89
2022/06/05 04:07:57;;;;;;;20.27;16.90;;;;;;;15.30;92.67;100725.84;3014006;77;21135;-88
2022/06/05 04:11:58;;;;;;;17.20;15.30;;;;;;;15.64;92.70;100726.64;2950584;79;21529;-86
2022/06/05 04:16:00;;;;;;;18.50;14.73;;;;;;;15.89;90.26;100725.62;2941758;79;21076;-90
2022/06/05 04:20:01;;;;;;;17.75;15.88;;;;;;;16.03;90.83;100729.63;2974406;79;20975;-89
2022/06/05 04:24:04;;;;;;;19.07;16.42;;;;;;;16.65;96.01;100730.73;3012504;77;21018;-87
2022/06/05 04:28:07;;;;;;;21.60;18.75;;;;;;;17.63;100.00;100733.74;2984489;78;21041;-87
2022/06/05 04:32:08;;;;;;;23.20;19.23;;;;;;;18.72;97.87;100729.46;2991627;77;21637;-90
2022/06/05 04:36:10;;;;;;;21.90;19.57;;;;;;;19.75;91.91;100721.15;2979659;77;21000;-89
2022/06/05 04:40:11;;;;;;;22.30;20.05;;;;;;;20.70;88.25;100725.11;3012211;79;21464;-89
2022/06/05 04:44:16;;;;;;;20.15;18.23;;;;;;;21.61;83.58;100712.53;2910502;80;20972;-89
2022/06/05 04:48:17;;;;;;;20.87;17.37;;;;;;;23.28;72.91;100694.05;3017349;77;20986;-88
2022/06/05 04:52:19;;;;;;;19.25;17.27;;;;;;;23.28;72.91;100694.05;2993263;77;21542;-89
2022/06/05 04:56:24;;;;;;;18.50;16.60;;;;;;;23.79;70.86;100703.16;2999214;77;21041;-85
2022/06/05 05:00:26;;;;;;;16.73;14.05;;;;;;;24.33;69.63;100701.94;3007148;77;21061;-87
2022/06/05 05:04:28;;;;;;;11.88;10.75;;;;;;;24.89;67.91;100703.16;2970029;77;20987;-89
2022/06/05 05:08:29;;;;;;;13.98;12.73;;;;;;;25.20;64.00;100702.47;3001061;77;21029;-87
2022/06/05 05:12:30;;;;;;;11.43;10.45;;;;;;;25.50;64.21;100702.52;3014730;78;21736;-86
2022/06/05 05:16:32;;;;;;;12.03;10.85;;;;;;;25.72;62.19;100694.86;2999457;79;21015;-86
2022/06/05 05:20:33;;;;;;;17.67;13.53;;;;;;;26.03;62.40;100695.97;2978862;77;21047;-86
2022/06/05 05:24:35;;;;;;;13.03;11.83;;;;;;;26.26;60.78;100688.31;2976614;77;21027;-86
2022/06/05 05:28:37;;;;;;;13.40;12.20;;;;;;;26.28;60.24;100692.47;3021832;77;21021;-88
2022/06/05 05:32:38;;;;;;;15.78;10.38;;;;;;;26.24;58.76;100687.16;2988132;79;21021;-87
2022/06/05 05:36:41;;;;;;;12.80;11.60;;;;;;;26.03;59.22;100680.98;3000606;77;21113;-88
2022/06/05 05:45:05;;;;;;;12.20;11.10;;;;;;;26.21;60.63;100667.16;2981517;77;21037;-90
2022/06/05 05:49:07;;;;;;;12.78;11.57;;;;;;;26.14;60.59;100664.95;3024075;77;21025;-87
2022/06/05 05:53:09;;;;;;;11.28;10.23;;;;;;;26.20;60.75;100665.48;2991700;77;21033;-85
2022/06/05 05:57:10;;;;;;;9.38;8.50;;;;;;;26.35;60.05;100664.65;3042861;77;21028;-81
2022/06/05 06:01:11;;;;;;;8.75;7.20;;;;;;;26.25;58.99;100667.56;3040181;77;21045;-90
2022/06/05 06:05:16;;;;;;;8.43;7.62;;;;;;;26.28;58.90;100658.39;3014862;77;21056;-87
2022/06/05 06:09:19;;;;;;;13.70;7.70;;;;;;;26.31;59.12;100662.58;3016638;77;21033;-89
2022/06/05 06:13:22;;;;;;;8.45;7.55;;;;;;;26.41;58.36;100663.44;3009262;79;21048;-88
2022/06/05 06:17:23;;;;;;;8.25;7.45;;;;;;;26.51;59.77;100662.40;2939418;79;21001;-89
2022/06/05 06:21:25;;;;;;;7.47;6.72;;;;;;;26.61;57.97;100658.65;2991203;79;21518;-90
2022/06/05 06:25:26;;;;;;;9.08;7.53;;;;;;;26.60;57.32;100666.53;2987342;78;21049;-89
2022/06/05 06:29:28;;;;;;;10.08;8.00;;;;;;;26.67;56.94;100662.38;2977774;77;21037;-89
2022/06/05 06:33:29;;;;;;;9.50;8.45;;;;;;;26.77;57.26;100655.05;2999107;78;21084;-88
2022/06/05 06:37:31;;;;;;;8.15;7.28;;;;;;;26.98;56.84;100658.44;2982434;78;21054;-87
2022/06/05 06:41:32;;;;;;;10.28;9.38;;;;;;;27.14;56.31;100657.84;2930814;79;21317;-87
2022/06/05 06:45:33;;;;;;;9.88;8.88;;;;;;;27.16;56.70;100663.06;2959447;79;21003;-85
2022/06/05 06:49:35;;;;;;;9.38;8.38;;;;;;;27.20;56.34;100658.29;2908211;81;21498;-91
2022/06/05 06:53:39;;;;;;;12.80;11.20;;;;;;;27.26;56.37;100668.84;2904383;81;20983;-87
2022/06/05 06:57:41;;;;;;;12.63;11.25;;;;;;;27.46;55.35;100663.12;2931244;80;21006;-90
2022/06/05 07:01:42;;;;;;;11.63;10.45;;;;;;;27.56;55.59;100664.52;2888396;81;21065;-86
2022/06/05 07:05:43;;;;;;;12.05;10.60;;;;;;;27.71;55.32;100662.73;2923421;80;21018;-88
2022/06/05 07:09:44;;;;;;;13.68;10.90;;;;;;;27.60;55.52;100660.25;2945760;80;21051;-86
2022/06/05 07:13:47;;;;;;;10.58;9.48;;;;;;;27.61;54.47;100661.41;2893114;80;21038;-89
2022/06/05 07:17:48;;;;;;;12.68;11.38;;;;;;;27.58;54.63;100658.29;2959710;80;21002;-88
2022/06/05 07:21:49;;;;;;;9.95;8.95;;;;;;;27.62;55.78;100652.66;2944056;79;21492;-85
2022/06/05 07:25:52;;;;;;;11.45;10.35;;;;;;;27.75;54.73;100653.00;2953520;80;21050;-84
2022/06/05 07:29:53;;;;;;;11.78;9.90;;;;;;;27.70;53.88;100649.59;2922432;80;21070;-86
2022/06/05 07:33:56;;;;;;;12.75;10.93;;;;;;;27.85;55.27;100651.08;3036529;77;21051;-88
2022/06/05 07:37:58;;;;;;;10.90;9.75;;;;;;;27.91;54.09;100641.97;3029216;77;21029;-89
2022/06/05 07:41:59;;;;;;;18.37;11.25;;;;;;;27.97;55.13;100641.55;3023474;77;21092;-88
2022/06/05 07:46:07;;;;;;;13.00;10.18;;;;;;;28.10;54.97;100635.88;3035774;77;20994;-89
2022/06/05 07:50:09;;;;;;;11.38;9.80;;;;;;;28.22;54.35;100628.58;3012170;77;21057;-88
2022/06/05 07:54:31;;;;;;;12.15;11.05;;;;;;;28.09;53.32;100632.30;3013851;77;20989;-89
2022/06/05 07:58:31;;;;;;;12.82;11.50;;;;;;;27.98;52.80;100635.86;3040172;77;21002;-89
2022/06/05 08:02:33;;;;;;;11.40;10.40;;;;;;;28.16;53.97;100630.05;3030821;77;21053;-86
2022/06/05 08:06:35;;;;;;;10.98;9.98;;;;;;;28.31;52.64;100629.06;3017031;77;21271;-89
2022/06/05 08:10:36;;;;;;;9.95;9.05;;;;;;;28.10;53.05;100624.95;3037083;77;21322;-88
2022/06/05 08:14:40;;;;;;;13.08;11.15;;;;;;;28.10;54.03;100627.68;3022550;77;21445;-88
2022/06/05 08:18:41;;;;;;;15.60;11.10;;;;;;;28.04;53.09;100625.34;3038785;77;21030;-88
2022/06/05 08:22:43;;;;;;;11.33;10.32;;;;;;;27.87;53.04;100627.08;3028827;77;21015;-90
2022/06/05 08:26:45;;;;;;;12.95;11.60;;;;;;;27.80;52.54;100625.80;3032494;77;20994;-90
2022/06/05 08:30:46;;;;;;;11.15;10.15;;;;;;;27.70;54.13;100617.34;2968839;77;21603;-91
2022/06/05 08:34:48;;;;;;;10.98;9.60;;;;;;;27.84;55.13;100620.20;3035141;77;21001;-90
2022/06/05 08:43:45;;;;;;;10.48;8.13;;;;;;;27.46;53.39;100611.77;3020947;77;21046;-83
2022/06/05 08:47:55;;;;;;;10.20;8.80;;;;;;;27.38;54.84;100611.00;3024073;76;21017;-87
2022/06/05 08:52:37;;;;;;;14.60;10.18;;;;;;;27.27;54.75;100603.60;3043407;77;20990;-87
2022/06/05 08:56:43;;;;;;;10.80;9.00;;;;;;;27.33;55.21;100598.58;3020928;77;20970;-88
2022/06/05 09:00:57;;;;;;;10.00;8.98;;;;;;;27.51;55.33;100594.14;3029422;76;21019;-89
2022/06/05 09:05:06;;;;;;;9.18;8.38;;;;;;;27.57;55.42;100589.69;2963082;79;20956;-86
2022/06/05 09:09:13;;;;;;;11.00;8.93;;;;;;;27.63;52.80;100596.43;3001179;79;20985;-88
2022/06/05 09:13:22;;;;;;;10.18;8.53;;;;;;;27.65;53.79;100596.18;3005242;78;21061;-89
2022/06/05 09:17:25;;;;;;;11.68;9.38;;;;;;;27.57;54.15;100596.52;2994761;78;20989;-89
2022/06/05 09:21:42;;;;;;;10.98;8.70;;;;;;;27.65;55.05;100596.18;3016760;77;21044;-88
2022/06/05 09:25:57;;;;;;;8.15;7.37;;;;;;;27.69;54.13;100596.56;3025888;77;21029;-91
2022/06/05 09:30:20;;;;;;;7.22;6.47;;;;;;;27.68;53.60;100597.08;3020891;77;21073;-88
2022/06/05 09:34:30;;;;;;;8.03;7.22;;;;;;;27.70;53.62;100588.11;3004214;77;21026;-92
2022/06/05 09:38:48;;;;;;;8.13;7.42;;;;;;;27.74;52.18;100581.14;2996786;79;20993;-85
2022/06/05 09:43:19;;;;;;;7.87;7.00;;;;;;;27.67;52.87;100570.00;2983682;79;21029;-88
2022/06/05 09:47:26;;;;;;;7.40;6.80;;;;;;;27.66;53.41;100567.79;2948661;79;21124;-89
2022/06/05 09:51:28;;;;;;;8.25;7.47;;;;;;;27.70;53.65;100569.53;2988455;77;21037;-90
2022/06/05 09:55:47;;;;;;;7.78;6.10;;;;;;;27.75;52.46;100560.94;2997936;79;21029;-89
2022/06/05 10:00:14;;;;;;;7.12;6.42;;;;;;;27.75;51.41;100558.20;2926660;79;21058;-87
2022/06/05 10:04:15;;;;;;;7.10;6.60;;;;;;;27.71;50.50;100551.55;2903303;80;21026;-88
2022/06/05 10:08:27;;;;;;;7.62;7.03;;;;;;;27.73;50.63;100546.68;2874830;81;21008;-88
2022/06/05 10:12:39;;;;;;;10.43;6.62;;;;;;;27.82;51.32;100549.91;2876720;81;21577;-83
2022/06/05 10:16:49;;;;;;;10.85;6.70;;;;;;;27.74;50.44;100551.08;2878589;82;21034;-87
2022/06/05 10:21:02;;;;;;;7.08;6.47;;;;;;;27.74;48.85;100537.42;2867693;82;21006;-89
2022/06/05 10:25:34;;;;;;;6.37;5.83;;;;;;;27.86;51.32;100538.80;2846813;82;21027;-86
2022/06/05 10:29:43;;;;;;;7.90;7.10;;;;;;;27.93;50.20;100530.50;2882465;81;21136;-88
2022/06/05 10:33:58;;;;;;;7.15;6.50;;;;;;;27.98;50.66;100518.83;2892987;81;21070;-88
2022/06/05 10:38:21;;;;;;;6.35;5.80;;;;;;;28.06;49.63;100513.84;2942241;80;21346;-86
2022/06/05 10:42:30;;;;;;;6.37;5.85;;;;;;;28.00;49.06;100521.64;2946264;79;20995;-86
2022/06/05 10:46:34;;;;;;;6.22;5.30;;;;;;;28.05;47.97;100514.92;2948447;80;21023;-85
2022/06/05 10:51:15;;;;;;;6.62;5.72;;;;;;;28.04;48.95;100506.42;2950835;80;21082;-86
2022/06/05 10:55:56;;;;;;;9.25;6.03;;;;;;;28.00;48.00;100507.13;2882656;82;20991;-84
2022/06/05 11:00:06;;;;;;;8.68;6.87;;;;;;;27.97;47.81;100508.45;2857937;81;21094;-87
2022/06/05 11:04:49;;;;;;;6.17;5.58;;;;;;;27.98;48.08;100499.70;2958463;79;21088;-84
2022/06/05 11:09:01;;;;;;;5.25;4.85;;;;;;;28.12;48.21;100490.75;2830269;82;20996;-83
2022/06/05 11:17:51;;;;;;;5.37;4.87;;;;;;;28.25;46.93;100493.25;2826217;82;21129;-88
2022/06/05 11:21:55;;;;;;;5.17;4.72;;;;;;;28.26;47.92;100488.08;2826640;83;21089;-86
2022/06/05 11:26:16;;;;;;;6.60;5.58;;;;;;;28.22;47.72;100478.69;2841236;82;21061;-88
2022/06/05 11:30:46;;;;;;;6.20;5.67;;;;;;;28.38;47.15;100472.20;2774376;84;21115;-88
2022/06/05 11:35:18;;;;;;;12.10;5.95;;;;;;;28.43;46.47;100464.09;2770663;84;21199;-87
2022/06/05 11:39:36;;;;;;;5.97;4.87;;;;;;;28.55;46.86;100456.70;2901165;79;20982;-86
2022/06/05 11:43:39;;;;;;;5.17;4.67;;;;;;;28.55;46.09;100448.50;2957188;79;21592;-87
2022/06/05 11:47:50;;;;;;;5.83;4.90;;;;;;;28.55;47.38;100437.55;2952153;79;21084;-87
2022/06/05 11:52:00;;;;;;;6.70;6.25;;;;;;;28.54;45.57;100442.73;2914822;80;21035;-85
2022/06/05 11:56:26;;;;;;;7.72;7.17;;;;;;;28.52;47.22;100440.78;2900903;80;20989;-83
2022/06/05 12:00:35;;;;;;;5.95;5.00;;;;;;;28.57;46.27;100434.03;2919007;80;21016;-87
2022/06/05 12:04:56;;;;;;;5.22;4.80;;;;;;;28.45;45.67;100400.39;2925082;81;21226;-83
2022/06/05 12:09:02;;;;;;;5.95;5.50;;;;;;;28.49;45.33;100421.56;2826808;83;21010;-88
2022/06/05 12:13:24;;;;;;;5.83;5.22;;;;;;;28.49;45.33;100421.56;2824037;84;21016;-87
2022/06/05 12:17:43;;;;;;;6.17;4.90;;;;;;;28.54;46.19;100414.00;2825798;84;21015;-88
2022/06/05 12:21:57;;;;;;;6.33;5.72;;;;;;;28.57;46.23;100410.78;2814070;83;21091;-87
2022/06/05 12:26:23;;;;;;;4.28;3.72;;;;;;;28.63;45.77;100401.59;2825448;83;21530;-89
2022/06/05 12:30:38;;;;;;;4.33;3.92;;;;;;;28.69;45.39;100385.26;2829860;83;21063;-87
2022/06/05 12:34:56;;;;;;;3.95;3.65;;;;;;;28.71;45.35;100381.21;2834761;82;21791;-88
2022/06/05 12:39:14;;;;;;;5.15;4.42;;;;;;;28.83;44.05;100375.71;2761984;85;21083;-89
2022/06/05 12:43:24;;;;;;;5.00;4.60;;;;;;;28.87;45.73;100360.45;2765781;84;21102;-92
2022/06/05 12:47:39;;;;;;;12.35;6.47;;;;;;;28.87;45.73;100360.45;2780211;83;21604;-88
2022/06/05 12:51:46;;;;;;;5.37;4.65;;;;;;;28.87;44.25;100359.63;2785976;83;21112;-85
2022/06/05 12:55:55;;;;;;;5.30;4.80;;;;;;;28.97;44.58;100364.46;2839492;83;21923;-86
2022/06/05 13:00:08;;;;;;;9.90;6.72;;;;;;;29.14;45.75;100362.56;2841714;83;21056;-87
2022/06/05 13:04:39;;;;;;;5.92;5.42;;;;;;;29.22;44.76;100334.76;2839306;83;21792;-89
2022/06/05 13:08:48;;;;;;;6.15;4.67;;;;;;;29.40;45.07;100349.28;2834747;83;21056;-88
2022/06/05 13:12:54;;;;;;;5.58;5.10;;;;;;;29.47;45.27;100345.84;2838761;82;21052;-86
2022/06/05 13:17:19;;;;;;;22.35;12.40;;;;;;;29.45;44.42;100334.31;2963108;79;20981;-86
2022/06/05 13:21:34;;;;;;;17.95;12.88;;;;;;;29.55;44.78;100335.56;2973158;79;21050;-86
2022/06/05 13:25:57;;;;;;;15.48;12.58;;;;;;;29.54;43.84;100326.49;2940683;79;31654;-89
2022/06/05 13:30:07;;;;;;;5.47;5.03;;;;;;;29.48;43.57;100313.81;2880541;82;21603;-87
2022/06/05 13:34:25;;;;;;;8.20;7.60;;;;;;;29.49;42.87;100321.79;2859512;82;21047;-88
2022/06/05 13:38:56;;;;;;;9.55;8.55;;;;;;;29.43;43.57;100313.19;2879833;82;21029;-86
2022/06/05 13:42:58;;;;;;;14.90;11.53;;;;;;;29.40;44.30;100302.70;2885330;81;21000;-86
2022/06/05 13:47:12;;;;;;;7.67;5.03;;;;;;;29.20;44.81;100305.42;2855748;82;21083;-88
2022/06/05 13:51:33;;;;;;;4.17;3.80;;;;;;;29.19;44.11;100291.45;2881205;82;21485;-89
2022/06/05 13:55:46;;;;;;;12.98;5.42;;;;;;;29.19;43.58;100285.97;2873429;81;21263;-88
2022/06/05 14:00:05;;;;;;;6.37;5.15;;;;;;;29.31;43.71;100272.17;2878237;82;21036;-87
2022/06/05 14:04:23;;;;;;;4.72;4.00;;;;;;;29.44;44.77;100270.20;2856634;82;21002;-86
2022/06/05 14:08:35;;;;;;;7.85;4.75;;;;;;;29.60;44.83;100253.41;2904445;81;21039;-89
2022/06/05 14:12:48;;;;;;;5.50;4.15;;;;;;;29.64;43.02;100260.87;2902726;81;21066;-85
2022/06/05 14:16:53;;;;;;;5.05;4.67;;;;;;;29.55;43.56;100233.62;2873590;80;21071;-84
2022/06/05 14:20:58;;;;;;;4.08;3.75;;;;;;;29.55;43.56;100233.62;2908838;80;21067;-88
2022/06/05 14:24:59;;;;;;;4.50;4.10;;;;;;;29.62;42.62;100249.88;2910116;80;21003;-87
2022/06/05 14:29:00;;;;;;;4.53;4.22;;;;;;;29.49;42.75;100250.55;2905900;80;21522;-86
2022/06/05 14:33:07;;;;;;;4.47;3.90;;;;;;;29.29;43.36;100248.31;2852421;81;21310;-86
2022/06/05 14:37:20;;;;;;;3.85;3.40;;;;;;;29.30;42.70;100250.53;2906683;81;21039;-87
2022/06/05 14:41:26;;;;;;;8.70;4.17;;;;;;;29.21;43.88;100248.20;2889630;80;20992;-88
2022/06/05 14:45:45;;;;;;;5.30;3.92;;;;;;;29.39;43.64;100244.08;2905465;80;21019;-87
2022/06/05 14:49:57;;;;;;;4.25;3.85;;;;;;;29.39;43.64;100244.08;2883084;81;21059;-88
2022/06/05 14:54:19;;;;;;;3.83;3.52;;;;;;;29.40;42.74;100239.70;2859234;83;21495;-88
2022/06/05 14:58:55;;;;;;;8.45;4.00;;;;;;;29.39;42.74;100243.52;2830979;82;21104;-89
2022/06/05 15:03:22;;;;;;;4.80;3.40;;;;;;;29.48;44.44;100222.03;2895963;80;21035;-89
2022/06/05 15:07:59;;;;;;;3.62;3.33;;;;;;;29.48;42.61;100230.25;2890801;81;21077;-87
2022/06/05 15:12:14;;;;;;;3.67;3.42;;;;;;;29.48;42.61;100230.25;2894386;82;21101;-91
2022/06/05 15:16:33;;;;;;;2.87;2.72;;;;;;;29.53;42.80;100218.53;2873435;82;21058;-90
2022/06/05 15:20:49;;;;;;;5.12;4.03;;;;;;;29.52;44.08;100193.03;2889473;80;20993;-88
2022/06/05 15:25:41;;;;;;;4.97;3.83;;;;;;;29.66;44.40;100209.91;2905520;80;21569;-85
2022/06/05 15:29:59;;;;;;;3.77;3.47;;;;;;;29.70;43.22;100204.23;2881473;81;21066;-87
2022/06/05 15:34:21;;;;;;;3.77;3.47;;;;;;;29.50;43.35;100202.89;2827603;82;21065;-89
2022/06/05 15:38:42;;;;;;;5.17;4.22;;;;;;;29.62;43.63;100196.44;2867534;82;21099;-88
2022/06/05 15:42:49;;;;;;;4.37;3.85;;;;;;;29.63;43.42;100189.87;2848609;83;20979;-89
2022/06/05 15:47:14;;;;;;;10.75;4.80;;;;;;;29.41;42.74;100187.97;2845486;82;22340;-86
2022/06/05 15:51:20;;;;;;;4.67;4.28;;;;;;;29.36;43.30;100196.09;2858438;82;21069;-89
2022/06/05 15:55:36;;;;;;;4.25;3.85;;;;;;;29.24;43.51;100181.16;2851243;81;21042;-89
2022/06/05 15:59:58;;;;;;;4.08;3.77;;;;;;;29.02;43.45;100139.52;2907242;80;21074;-88
2022/06/05 16:04:22;;;;;;;5.37;4.17;;;;;;;29.02;43.45;100139.52;2841643;81;21007;-91
2022/06/05 16:08:44;;;;;;;5.73;4.43;;;;;;;29.01;43.68;100159.77;2843725;81;21125;-85
2022/06/05 16:12:48;;;;;;;8.28;3.83;;;;;;;28.90;43.75;100150.58;2854170;83;21332;-87
2022/06/05 16:16:58;;;;;;;7.95;5.05;;;;;;;28.80;44.86;100140.84;2824037;84;21019;-83
2022/06/05 16:21:29;;;;;;;4.45;4.15;;;;;;;28.71;44.88;100143.69;2896739;82;21058;-88
2022/06/05 16:26:06;;;;;;;6.30;3.83;;;;;;;28.60;45.46;100139.42;3010978;79;21057;-85
2022/06/05 16:30:38;;;;;;;4.85;4.45;;;;;;;28.52;46.05;100138.48;3000744;79;21022;-88
2022/06/05 16:39:00;;;;;;;4.20;3.90;;;;;;;28.16;45.30;100134.59;3016027;79;21016;-88
2022/06/05 16:43:21;;;;;;;4.90;4.50;;;;;;;28.04;45.90;100133.83;3015316;78;20993;-87
2022/06/05 16:47:40;;;;;;;6.12;3.92;;;;;;;27.94;45.76;100129.00;3002051;77;20962;-87
2022/06/05 16:51:45;;;;;;;4.55;4.25;;;;;;;27.78;45.68;100125.14;2999331;79;21049;-87
2022/06/05 16:56:01;;;;;;;5.17;4.35;;;;;;;27.68;45.40;100124.96;3010979;77;21017;-86
2022/06/05 17:00:17;;;;;;;4.42;4.12;;;;;;;27.59;45.31;100137.62;3015777;77;21025;-86
2022/06/05 17:04:34;;;;;;;4.17;3.77;;;;;;;27.59;46.20;100148.55;3015490;79;21022;-86
2022/06/05 17:08:47;;;;;;;6.05;4.62;;;;;;;27.50;46.15;100134.41;3015314;79;21002;-86
2022/06/05 17:12:56;;;;;;;4.75;4.37;;;;;;;27.45;47.06;100140.33;3000527;79;21053;-86
2022/06/05 17:17:11;;;;;;;5.03;4.62;;;;;;;27.41;46.75;100135.88;3016118;79;21029;-89
2022/06/05 17:21:16;;;;;;;;;;;;;;;27.30;47.37;100130.75;2983223;79;20990;-86
2022/06/05 17:25:41;;;;;;;5.03;4.53;;;;;;;27.17;47.64;100130.48;2950747;79;20419;-88
2022/06/05 17:30:06;;;;;;;5.33;4.95;;;;;;;27.04;48.02;100117.08;2978590;79;21497;-86
2022/06/05 17:34:19;;;;;;;5.05;3.87;;;;;;;26.93;48.50;100122.86;3015074;79;21116;-88
2022/06/05 17:38:52;;;;;;;4.80;4.40;;;;;;;26.77;49.03;100114.84;3007509;79;20978;-88
2022/06/05 17:43:02;;;;;;;5.03;4.62;;;;;;;26.65;49.36;100118.39;3001820;79;21033;-88
2022/06/05 17:47:50;;;;;;;6.42;4.45;;;;;;;26.50;50.18;100116.13;2829712;82;21021;-89
2022/06/05 17:51:54;;;;;;;9.20;5.65;;;;;;;26.34;50.68;100116.30;2817750;82;21059;-87
2022/06/05 17:55:56;;;;;;;5.28;4.87;;;;;;;26.13;51.31;100118.16;2769995;83;20994;-84
2022/06/05 18:00:14;;;;;;;5.33;4.83;;;;;;;25.88;52.05;100121.89;2821268;82;21022;-88
2022/06/05 18:04:26;;;;;;;6.90;6.30;;;;;;;25.70;52.39;100120.06;2812745;82;21662;-88
2022/06/05 18:08:31;;;;;;;6.00;5.35;;;;;;;25.47;53.13;100112.06;2830331;83;21090;-88
2022/06/05 18:12:36;;;;;;;5.87;5.37;;;;;;;25.22;53.77;100113.81;2831413;82;21125;-89
2022/06/05 18:16:43;;;;;;;6.30;5.78;;;;;;;24.98;54.40;100115.54;2723309;86;21051;-86
2022/06/05 18:20:52;;;;;;;6.62;6.03;;;;;;;24.76;54.89;100116.48;2751509;84;21067;-84
2022/06/05 18:24:53;;;;;;;6.78;5.47;;;;;;;24.52;55.93;100110.83;2881168;81;21137;-89
2022/06/05 18:28:57;;;;;;;6.33;5.72;;;;;;;24.32;56.54;100113.18;2905951;80;21065;-87
2022/06/05 18:33:13;;;;;;;6.53;5.92;;;;;;;24.15;56.74;100114.77;2892348;80;21042;-86
2022/06/05 18:41:42;;;;;;;8.65;7.05;;;;;;;23.82;57.90;100122.91;2916890;81;21022;-81
2022/06/05 18:45:47;;;;;;;8.00;7.20;;;;;;;23.63;58.22;100126.56;2899069;81;21046;-87
2022/06/05 18:49:49;;;;;;;7.47;6.77;;;;;;;23.33;58.48;100102.67;2938561;80;21019;-83
2022/06/05 18:53:54;;;;;;;7.45;6.85;;;;;;;23.29;58.82;100129.42;2910729;81;21059;-87
2022/06/05 18:57:55;;;;;;;6.97;6.35;;;;;;;23.14;58.94;100122.84;2907921;81;21033;-87
2022/06/05 19:02:01;;;;;;;6.05;5.28;;;;;;;23.03;59.09;100122.97;2893824;81;20959;-88
2022/06/05 19:06:07;;;;;;;7.60;6.50;;;;;;;22.93;59.34;100126.13;2896220;82;21059;-86
2022/06/05 19:10:16;;;;;;;8.53;7.83;;;;;;;22.80;59.79;100135.12;2840082;82;21090;-90
2022/06/05 19:14:41;;;;;;;7.25;6.55;;;;;;;22.64;60.29;100136.39;2895398;82;21025;-87
2022/06/05 19:18:48;;;;;;;21.17;7.37;;;;;;;22.48;60.33;100142.23;2802109;84;21106;-88
2022/06/05 19:22:52;;;;;;;6.67;6.10;;;;;;;22.28;60.12;100143.53;2792621;85;21039;-88
2022/06/05 19:26:54;;;;;;;5.95;5.45;;;;;;;22.15;60.40;100154.67;2832516;84;21071;-89
2022/06/05 19:30:57;;;;;;;5.62;5.15;;;;;;;22.05;60.45;100164.55;2830119;83;21067;-90
2022/06/05 19:35:02;;;;;;;6.62;5.97;;;;;;;21.92;60.51;100176.19;2761545;86;21134;-86
2022/06/05 19:39:25;;;;;;;6.12;5.53;;;;;;;21.84;60.68;100188.53;2828425;84;20973;-88